Portada
METAR-TAF:

METAR-TAF

Aeroports :

Minocqua-Woodruff, Wisconsin, Estats Units d'Amèrica

latitud: 45-56N, longitud: 089-44W, altitud: 496 m

Observació

L'informe es va fer fa 35 minuts, a les 08:55 UTC
Vent calma
Temperatura 15°C
Humitat 94%
Pressió 1010 hPa
Visibilitat: 16.1 km
Núvols disperses a una alçada de 700 ft
Cel ennuvolat a una alçada de 2500 ft
Cel cobert a una alçada de 6500 ft

METAR: KARV 250855Z AUTO 00000KT 10SM SCT007 BKN025 OVC065 15/14 A2983 RMK AO2 60001 T01520138

Hora: 04:30 (09:30 UTC)


TAF: manca

Observacions i pronòstics meteorològics de més de 4000 aeroports (METAR i TAF).

Les estacions disponibles són els punts grocs i vermells al mapa.

Posi el ratolí al punt desitjat per veure el nom de l'estació.

Feu clic per veure les observacions i els pronòstics meteorològics.

Per canviar el mapa: feu clic els botons verds amb una creu de color negre per apropar; al botó verd amb un guió per allunyar la imatge; o en les fletxes verdes per a mapes adjacents.


METAR-TAF: